Terminal Aerodrome Forecast
Issued by NWS Cleveland, OH

Home | Current Version | Previous Version | Graphics & Text | Print | Product List | Glossary On
Versions: 1 2 3 4 5 6 7 8 9 10 11 12 13 14 15 16 17 18 19 20 21 22 23 24 25 26 27 28
000
FTUS41 KCLE 302300
TAFCLE
TAF
KCLE 302338Z 0100/0206 01007KT P6SM VCSH OVC010
      TEMPO 0101/0104 6SM -SHRA OVC008
     FM010500 35004KT P6SM SCT008 BKN070
     FM011000 01004KT 4SM BR BKN250
     FM011200 35008KT P6SM SCT060
     FM020100 24003KT P6SM SKC=

USA.gov is the U.S. government's official web portal to all federal, state and local government web resources and services.